Time;durP1;ratioP1;P1;durP2;ratioP2;P2;SDS_P1;SDS_P2;PMS_P1;PMS_P2;Temp;Humidity;BMP_temperature;BMP_pressure;BME280_temperature;BME280_humidity;BME280_pressure;Samples;Min_cycle;Max_cycle;Signal;HPM_P1;HPM_P2
2021/07/13 00:02:01;;;;;;;398.47;104.40;;;;;;;;;;5035507;28;20435;-76
2021/07/13 00:04:27;;;;;;;395.77;107.00;;;;;;;;;;5034763;28;20412;-76
2021/07/13 00:06:53;;;;;;;432.07;112.00;;;;;;;;;;5018205;28;20440;-76
2021/07/13 00:09:20;;;;;;;430.77;109.20;;;;;;;;;;5015986;28;20782;-77
2021/07/13 00:11:47;;;;;;;486.10;122.83;;;20.30;99.90;;;;;;5022330;28;20418;-76
2021/07/13 00:14:13;;;;;;;411.20;103.90;;;;;;;;;;5033628;28;20855;-77
2021/07/13 00:16:40;;;;;;;450.70;116.93;;;;;;;;;;5033873;28;20791;-76
2021/07/13 00:19:06;;;;;;;422.07;109.27;;;;;;;;;;5035924;28;20420;-76
2021/07/13 00:21:32;;;;;;;467.37;118.20;;;;;;;;;;5034580;28;20741;-76
2021/07/13 00:23:58;;;;;;;403.43;106.97;;;;;;;;;;5017692;28;21021;-77
2021/07/13 00:26:24;;;;;;;579.23;148.80;;;;;;;;;;5015239;28;20754;-77
2021/07/13 00:28:50;;;;;;;580.80;139.83;;;;;;;;;;5015709;28;20461;-77
2021/07/13 00:31:16;;;;;;;514.37;126.77;;;;;;;;;;5027746;28;20581;-76
2021/07/13 00:33:43;;;;;;;487.80;123.13;;;;;;;;;;5027444;28;20964;-76
2021/07/13 00:36:09;;;;;;;500.13;124.90;;;;;;;;;;5027164;28;20417;-76
2021/07/13 00:38:35;;;;;;;450.27;116.03;;;;;;;;;;5014743;28;20417;-77
2021/07/13 00:41:01;;;;;;;447.33;113.67;;;;;;;;;;5015789;28;20405;-76
2021/07/13 00:43:27;;;;;;;447.23;113.23;;;;;;;;;;5014960;28;20794;-77
2021/07/13 00:45:53;;;;;;;469.47;118.47;;;;;;;;;;5014987;28;20393;-77
2021/07/13 00:48:21;;;;;;;435.83;114.67;;;;;;;;;;5014923;28;20423;-76
2021/07/13 00:50:47;;;;;;;454.93;115.97;;;;;;;;;;5028282;28;20386;-76
2021/07/13 00:53:14;;;;;;;478.43;120.73;;;;;;;;;;5023960;28;20415;-76
2021/07/13 00:55:40;;;;;;;456.90;117.87;;;;;;;;;;5033996;28;20450;-76
2021/07/13 00:58:06;;;;;;;445.97;111.57;;;;;;;;;;5033578;28;20923;-76
2021/07/13 01:00:33;;;;;;;448.17;115.47;;;20.30;1.00;;;;;;5027726;28;20408;-76
2021/07/13 01:03:01;;;;;;;460.87;114.40;;;;;;;;;;5025670;28;20508;-76
2021/07/13 01:05:36;;;;;;;444.70;115.13;;;20.30;1.00;;;;;;5021865;28;20466;-77
2021/07/13 01:08:05;;;;;;;460.50;115.73;;;20.30;99.90;;;;;;5014379;28;20388;-77
2021/07/13 01:10:38;;;;;;;466.27;120.10;;;20.20;1.00;;;;;;5018289;28;20412;-76
2021/07/13 01:13:13;;;;;;;624.57;146.50;;;20.20;1.00;;;;;;5013870;28;20420;-76
2021/07/13 01:15:46;;;;;;;453.97;116.63;;;;;;;;;;5028687;28;20465;-76
2021/07/13 01:18:26;;;;;;;438.53;113.97;;;20.20;1.00;;;;;;5034352;28;20464;-76
2021/07/13 01:21:40;;;;;;;427.63;109.47;;;20.20;1.00;;;;;;5032778;28;20405;-76
2021/07/13 01:24:15;;;;;;;494.63;122.03;;;;;;;;;;5025784;28;20500;-77
2021/07/13 01:27:00;;;;;;;447.57;111.90;;;;;;;;;;5025921;28;20419;-76
2021/07/13 01:29:28;;;;;;;420.27;108.60;;;20.20;1.00;;;;;;5014434;28;20364;-76
2021/07/13 01:31:54;;;;;;;419.00;106.47;;;;;;;;;;5013744;28;20426;-77
2021/07/13 01:34:25;;;;;;;424.20;107.50;;;20.20;1.00;;;;;;5027585;28;20482;-77
2021/07/13 01:36:55;;;;;;;411.77;109.70;;;20.20;1.00;;;;;;5015624;28;20425;-76
2021/07/13 01:39:21;;;;;;;398.67;108.63;;;;;;;;;;5027000;28;20887;-77
2021/07/13 01:41:50;;;;;;;389.10;101.67;;;20.10;1.00;;;;;;5026057;28;20748;-77
2021/07/13 01:44:19;;;;;;;384.77;104.37;;;20.10;1.00;;;;;;5024810;28;20432;-76
2021/07/13 01:46:46;;;;;;;376.00;100.97;;;20.10;1.00;;;;;;5014858;28;20416;-77
2021/07/13 01:49:16;;;;;;;376.47;102.37;;;20.20;1.00;;;;;;5027275;28;20413;-76
2021/07/13 01:51:47;;;;;;;500.70;125.30;;;;;;;;;;5032102;28;20415;-76
2021/07/13 01:54:15;;;;;;;445.57;116.07;;;20.10;1.00;;;;;;5030518;28;20404;-77
2021/07/13 01:56:43;;;;;;;648.60;164.90;;;20.10;1.00;;;;;;5023202;28;20414;-76
2021/07/13 01:59:11;;;;;;;328.50;94.80;;;;;;;;;;5013417;28;20747;-76
2021/07/13 02:01:37;;;;;;;349.73;98.50;;;20.10;1.00;;;;;;5019306;28;20412;-76
2021/07/13 02:04:04;;;;;;;366.00;99.20;;;;;;;;;;5033115;28;20420;-76
2021/07/13 02:06:31;;;;;;;359.53;101.70;;;;;;;;;;5031949;28;20489;-76
2021/07/13 02:09:05;;;;;;;364.20;101.17;;;20.10;1.00;;;;;;5033513;28;20834;-76
2021/07/13 02:11:31;;;;;;;377.07;104.10;;;;;;;;;;5031764;28;20378;-76
2021/07/13 02:13:57;;;;;;;351.30;99.60;;;;;;;;;;5020547;28;20401;-77
2021/07/13 02:16:23;;;;;;;350.93;98.47;;;;;;;;;;5013270;28;20861;-77
2021/07/13 02:18:50;;;;;;;355.70;101.10;;;;;;;;;;5043300;28;20505;-77
2021/07/13 02:21:17;;;;;;;248.43;83.30;;;20.10;1.00;;;;;;5033398;28;20392;-76
2021/07/13 02:23:44;;;;;;;292.07;91.93;;;20.10;1.00;;;;;;5031619;28;20485;-77
2021/07/13 02:26:15;;;;;;;288.93;87.80;;;20.10;1.00;;;;;;5031876;28;20478;-76
2021/07/13 02:28:44;;;;;;;321.30;96.57;;;20.10;1.00;;;;;;5032110;28;20370;-77
2021/07/13 02:31:28;;;;;;;305.50;93.30;;;20.10;1.00;;;;;;5032757;28;20439;-76
2021/07/13 02:34:14;;;;;;;318.60;96.33;;;;;;;;;;5032048;28;20452;-76
2021/07/13 02:36:49;;;;;;;360.10;101.90;;;20.10;1.00;;;;;;5032247;28;20385;-76
2021/07/13 02:39:16;;;;;;;366.43;101.60;;;;;;;;;;5032637;28;20384;-76
2021/07/13 02:41:43;;;;;;;383.63;104.70;;;;;;;;;;5027838;28;20390;-76
2021/07/13 02:44:10;;;;;;;331.93;98.07;;;;;;;;;;5013598;28;20415;-76
2021/07/13 02:46:46;;;;;;;341.07;98.40;;;20.10;1.00;;;;;;5029242;28;20416;-76
2021/07/13 02:49:34;;;;;;;354.07;100.93;;;20.00;1.00;;;;;;5032989;28;20369;-76
2021/07/13 02:52:00;;;;;;;351.97;101.00;;;;;;;;;;5032161;28;20912;-76
2021/07/13 02:54:29;;;;;;;353.13;100.83;;;20.00;1.00;;;;;;5023377;28;20472;-77
2021/07/13 02:56:59;;;;;;;357.57;98.30;;;20.10;1.00;;;;;;5012675;28;20778;-77
2021/07/13 02:59:28;;;;;;;379.93;103.73;;;20.00;1.00;;;;;;5013055;28;20388;-77
2021/07/13 03:01:54;;;;;;;367.43;100.63;;;;;;;;;;5018109;28;20426;-76
2021/07/13 03:04:21;;;;;;;402.40;105.67;;;;;;;;;;5029085;28;20425;-76
2021/07/13 03:06:47;;;;;;;358.53;98.60;;;;;;;;;;5031600;28;20433;-77
2021/07/13 03:09:13;;;;;;;364.77;102.60;;;;;;;;;;5032852;28;20370;-77
2021/07/13 03:11:40;;;;;;;398.63;105.23;;;;;;;;;;5030348;28;20392;-77
2021/07/13 03:14:08;;;;;;;368.37;101.07;;;;;;;;;;5031256;28;20442;-77
2021/07/13 03:16:35;;;;;;;375.07;101.47;;;;;;;;;;5017832;28;20464;-77
2021/07/13 03:19:01;;;;;;;372.60;102.07;;;;;;;;;;5047571;28;20410;-76
2021/07/13 03:21:30;;;;;;;368.67;101.77;;;19.90;1.00;;;;;;5017838;28;20413;-76
2021/07/13 03:24:00;;;;;;;389.77;101.90;;;20.00;1.00;;;;;;5023550;28;20534;-76
2021/07/13 03:26:29;;;;;;;404.27;105.27;;;20.00;1.00;;;;;;5031446;28;20869;-77
2021/07/13 03:28:59;;;;;;;409.20;106.20;;;20.00;1.00;;;;;;5032561;28;20406;-76
2021/07/13 03:31:30;;;;;;;543.23;132.13;;;19.90;1.00;;;;;;5032352;28;20518;-77
2021/07/13 03:34:00;;;;;;;547.50;130.90;;;20.00;1.00;;;;;;5024966;28;20452;-77
2021/07/13 03:36:26;;;;;;;530.87;128.00;;;20.00;1.00;;;;;;5015850;28;20424;-76
2021/07/13 03:38:53;;;;;;;525.33;128.47;;;;;;;;;;5029124;28;20431;-76
2021/07/13 03:41:19;;;;;;;525.13;128.63;;;;;;;;;;5035519;28;20410;-76
2021/07/13 03:43:46;;;;;;;513.70;125.23;;;;;;;;;;5026179;28;20499;-76
2021/07/13 03:46:12;;;;;;;529.03;128.93;;;;;;;;;;5025890;28;20878;-77
2021/07/13 03:48:39;;;;;;;533.90;129.13;;;19.90;1.00;;;;;;5036068;28;20398;-76
2021/07/13 03:51:05;;;;;;;569.60;136.80;;;;;;;;;;5036017;28;20409;-76
2021/07/13 03:53:31;;;;;;;543.07;129.43;;;;;;;;;;5034991;28;20443;-76
2021/07/13 03:55:58;;;;;;;542.77;130.10;;;;;;;;;;5023532;28;20530;-77
2021/07/13 03:58:24;;;;;;;533.23;124.53;;;;;;;;;;5017035;28;20423;-81
2021/07/13 04:00:51;;;;;;;526.17;126.40;;;;;;;;;;5035414;28;20429;-81
2021/07/13 04:03:17;;;;;;;518.70;125.30;;;;;;;;;;5026603;28;20483;-80
2021/07/13 04:05:57;;;;;;;518.70;126.97;;;;;;;;;;5035621;28;20798;-80
2021/07/13 04:08:23;;;;;;;525.13;126.60;;;;;;;;;;5034571;28;20815;-81
2021/07/13 04:10:51;;;;;;;510.67;121.13;;;;;;;;;;5035850;28;20843;-81
2021/07/13 04:13:17;;;;;;;532.07;127.23;;;;;;;;;;5029827;28;20974;-81
2021/07/13 04:15:43;;;;;;;527.50;129.13;;;;;;;;;;5034297;28;20398;-81
2021/07/13 04:18:10;;;;;;;565.30;135.03;;;;;;;;;;5017473;28;20518;-81
2021/07/13 04:20:36;;;;;;;542.87;130.40;;;;;;;;;;5019029;28;20400;-76
2021/07/13 04:23:02;;;;;;;549.77;131.07;;;;;;;;;;5033419;28;20820;-77
2021/07/13 04:25:28;;;;;;;554.40;134.10;;;;;;;;;;5033887;28;20468;-77
2021/07/13 04:27:54;;;;;;;565.27;133.77;;;;;;;;;;5034513;28;20877;-77
2021/07/13 04:30:20;;;;;;;562.30;135.00;;;;;;;;;;5034333;28;20395;-77
2021/07/13 04:32:46;;;;;;;573.00;134.80;;;;;;;;;;5023262;28;20452;-77
2021/07/13 04:35:13;;;;;;;571.57;136.93;;;;;;;;;;5018701;28;20917;-81
2021/07/13 04:37:39;;;;;;;560.27;132.87;;;;;;;;;;5034136;28;20415;-81
2021/07/13 04:40:05;;;;;;;566.27;134.57;;;;;;;;;;5033801;28;20875;-81
2021/07/13 04:42:31;;;;;;;560.30;134.90;;;;;;;;;;5032057;28;20493;-81
2021/07/13 04:44:57;;;;;;;569.47;137.33;;;;;;;;;;5019404;28;20983;-81
2021/07/13 04:47:23;;;;;;;568.23;131.90;;;;;;;;;;5022650;28;20916;-81
2021/07/13 04:49:50;;;;;;;564.13;132.07;;;;;;;;;;5034108;28;20488;-81
2021/07/13 04:52:27;;;;;;;572.10;136.27;;;;;;;;;;5028627;28;20425;-81
2021/07/13 04:54:57;;;;;;;557.30;130.30;;;;;;;;;;5014806;28;20781;-79
2021/07/13 04:57:28;;;;;;;561.73;131.33;;;20.40;1.00;;;;;;5014770;28;20899;-81
2021/07/13 04:59:57;;;;;;;560.17;132.80;;;;;;;;;;5014941;28;20422;-81
2021/07/13 05:02:27;;;;;;;559.60;131.40;;;;;;;;;;5015768;28;20503;-83
2021/07/13 05:04:53;;;;;;;560.43;130.67;;;;;;;;;;5025897;28;20481;-81
2021/07/13 05:07:22;;;;;;;569.33;133.17;;;;;;;;;;5034372;28;20407;-81
2021/07/13 05:09:48;;;;;;;567.40;134.70;;;;;;;;;;5034234;28;20445;-79
2021/07/13 05:12:15;;;;;;;562.50;133.07;;;;;;;;;;5042108;28;20420;-80
2021/07/13 05:14:45;;;;;;;573.27;136.00;;;;;;;;;;5033330;28;20424;-80
2021/07/13 05:17:15;;;;;;;569.33;134.77;;;;;;;;;;5034128;28;20411;-84
2021/07/13 05:19:44;;;;;;;572.60;136.30;;;;;;;;;;5033521;28;20411;-78
2021/07/13 05:22:11;;;;;;;561.60;133.27;;;;;;;;;;5033350;28;20554;-80
2021/07/13 05:24:51;;;;;;;557.63;131.90;;;;;;;;;;5034189;28;20416;-80
2021/07/13 05:27:36;;;;;;;552.67;129.20;;;20.50;1.00;;;;;;5033968;28;20384;-80
2021/07/13 05:30:17;;;;;;;562.07;134.80;;;;;;;;;;5024277;28;20422;-79
2021/07/13 05:32:43;;;;;;;564.63;134.53;;;;;;;;;;5024671;28;20459;-75
2021/07/13 05:35:09;;;;;;;561.77;131.83;;;;;;;;;;5030115;28;20442;-75
2021/07/13 05:37:35;;;;;;;566.10;137.40;;;20.60;1.00;;;;;;5032783;28;20439;-76
2021/07/13 05:40:05;;;;;;;570.50;135.83;;;;;;;;;;5033267;28;20493;-76
2021/07/13 05:42:31;;;;;;;577.17;137.37;;;;;;;;;;5032418;28;20512;-84
2021/07/13 05:44:57;;;;;;;564.13;135.23;;;;;;;;;;5025010;28;20441;-83
2021/07/13 05:47:23;;;;;;;560.27;133.30;;;;;;;;;;5031815;28;20407;-82
2021/07/13 05:49:49;;;;;;;574.40;140.17;;;;;;;;;;5032597;28;20398;-82
2021/07/13 05:52:15;;;;;;;588.03;141.23;;;;;;;;;;5030426;28;20484;-82
2021/07/13 05:54:42;;;;;;;597.70;145.30;;;;;;;;;;5022927;28;20854;-82
2021/07/13 05:57:08;;;;;;;560.80;134.67;;;;;;;;;;5027690;28;20435;-82
2021/07/13 05:59:34;;;;;;;565.87;134.90;;;;;;;;;;5030485;28;20423;-82
2021/07/13 06:02:00;;;;;;;562.53;132.40;;;;;;;;;;5031762;28;20411;-82
2021/07/13 06:04:26;;;;;;;575.67;136.30;;;;;;;;;;5030818;28;20514;-82
2021/07/13 06:06:52;;;;;;;569.70;138.80;;;;;;;;;;5031755;28;20427;-82
2021/07/13 06:09:18;;;;;;;565.10;138.73;;;;;;;;;;5032284;28;20391;-82
2021/07/13 06:11:44;;;;;;;569.57;139.00;;;;;;;;;;5030967;28;20428;-82
2021/07/13 06:14:10;;;;;;;558.50;133.77;;;;;;;;;;5032444;28;20507;-82
2021/07/13 06:16:36;;;;;;;563.77;134.80;;;;;;;;;;5032340;28;20415;-82
2021/07/13 06:19:02;;;;;;;563.73;133.17;;;;;;;;;;5031693;28;20519;-82
2021/07/13 06:21:28;;;;;;;574.27;139.43;;;;;;;;;;5030836;28;20526;-80
2021/07/13 06:23:55;;;;;;;563.00;133.90;;;;;;;;;;5032492;28;20454;-80
2021/07/13 06:26:21;;;;;;;559.50;132.47;;;;;;;;;;5032056;28;20396;-77
2021/07/13 06:28:47;;;;;;;561.33;134.33;;;;;;;;;;5031301;28;20426;-77
2021/07/13 06:31:13;;;;;;;557.07;133.80;;;;;;;;;;5031760;28;20918;-77
2021/07/13 06:33:39;;;;;;;556.67;132.33;;;;;;;;;;5031990;28;20424;-77
2021/07/13 06:36:06;;;;;;;556.83;134.60;;;;;;;;;;5032091;28;20444;-74
2021/07/13 06:38:32;;;;;;;557.17;132.80;;;;;;;;;;5032051;28;20438;-74
2021/07/13 06:40:58;;;;;;;557.70;133.23;;;;;;;;;;5031812;28;20403;-74
2021/07/13 06:43:24;;;;;;;557.10;131.93;;;;;;;;;;5031578;28;20859;-74
2021/07/13 06:45:50;;;;;;;556.37;132.33;;;;;;;;;;5012304;28;20425;-74
2021/07/13 06:48:16;;;;;;;561.53;130.77;;;;;;;;;;5012256;28;20396;-74
2021/07/13 06:50:42;;;;;;;572.93;138.03;;;;;;;;;;5021967;28;20450;-74
2021/07/13 06:53:08;;;;;;;562.37;133.80;;;;;;;;;;5032315;28;20405;-74
2021/07/13 06:55:34;;;;;;;565.33;138.30;;;;;;;;;;5013578;28;20417;-74
2021/07/13 06:58:00;;;;;;;556.60;129.87;;;;;;;;;;5024424;28;20503;-74
2021/07/13 07:00:26;;;;;;;570.33;137.90;;;;;;;;;;5031796;28;20531;-74
2021/07/13 07:02:52;;;;;;;575.13;139.37;;;;;;;;;;5031112;28;20460;-74
2021/07/13 07:05:18;;;;;;;577.40;141.57;;;;;;;;;;5030141;28;20423;-74
2021/07/13 07:07:46;;;;;;;556.90;134.90;;;21.10;99.90;;;;;;5025893;28;20456;-74
2021/07/13 07:10:13;;;;;;;565.03;135.40;;;21.20;99.90;;;;;;5014311;28;20407;-74
2021/07/13 07:12:39;;;;;;;555.97;132.87;;;;;;;;;;5027284;28;20519;-74
2021/07/13 07:15:05;;;;;;;559.10;132.40;;;;;;;;;;5035533;28;20449;-74
2021/07/13 07:17:31;;;;;;;571.43;138.80;;;;;;;;;;5035470;28;20428;-74
2021/07/13 07:20:00;;;;;;;557.23;130.00;;;;;;;;;;5035705;28;20431;-74
2021/07/13 07:22:27;;;;;;;559.30;132.47;;;;;;;;;;5035464;28;20454;-74
2021/07/13 07:24:53;;;;;;;569.90;142.53;;;;;;;;;;5035181;28;20424;-75
2021/07/13 07:27:19;;;;;;;572.30;143.37;;;;;;;;;;5028644;28;20490;-74
2021/07/13 07:29:45;;;;;;;561.50;135.10;;;;;;;;;;5035535;28;20495;-74
2021/07/13 07:32:11;;;;;;;559.23;136.90;;;;;;;;;;5034804;28;20538;-74
2021/07/13 07:34:37;;;;;;;580.40;147.83;;;;;;;;;;5027690;28;20845;-74
2021/07/13 07:37:03;;;;;;;563.83;137.80;;;;;;;;;;5035864;28;20419;-74
2021/07/13 07:39:29;;;;;;;564.97;139.33;;;;;;;;;;5034893;28;20447;-74
2021/07/13 07:41:55;;;;;;;561.40;139.33;;;;;;;;;;5050583;28;20413;-74
2021/07/13 07:44:23;;;;;;;561.87;141.37;;;;;;;;;;5047393;28;20498;-74
2021/07/13 07:46:50;;;;;;;551.10;131.50;;;;;;;;;;5035003;28;20401;-74
2021/07/13 07:49:16;;;;;;;726.43;192.00;;;;;;;;;;5029958;28;20449;-74
2021/07/13 07:51:42;;;;;;;565.20;141.43;;;;;;;;;;5033064;28;20912;-74
2021/07/13 07:54:08;;;;;;;567.77;138.37;;;;;;;;;;5035109;28;20484;-74
2021/07/13 07:56:35;;;;;;;574.10;144.47;;;;;;;;;;5043659;28;20543;-74
2021/07/13 07:59:02;;;;;;;572.20;140.60;;;;;;;;;;5030738;28;20417;-74
2021/07/13 08:01:28;;;;;;;576.10;144.33;;;;;;;;;;5034706;28;20388;-74
2021/07/13 08:03:54;;;;;;;571.33;147.97;;;;;;;;;;5034218;28;20454;-74
2021/07/13 08:06:20;;;;;;;582.93;150.67;;;;;;;;;;5031403;28;20775;-74
2021/07/13 08:08:46;;;;;;;571.17;145.67;;;;;;;;;;5044246;28;20481;-74
2021/07/13 08:11:12;;;;;;;569.77;142.17;;;;;;;;;;5037439;28;20448;-74
2021/07/13 08:13:38;;;;;;;567.27;144.83;;;;;;;;;;5034457;28;20401;-74
2021/07/13 08:16:04;;;;;;;569.33;144.13;;;;;;;;;;5034268;28;20412;-74
2021/07/13 08:18:30;;;;;;;570.83;142.33;;;;;;;;;;5034298;28;20413;-74
2021/07/13 08:20:59;;;;;;;570.33;148.07;;;;;;;;;;5034030;28;20401;-74
2021/07/13 08:23:25;;;;;;;578.50;151.87;;;;;;;;;;5034779;28;20468;-74
2021/07/13 08:25:51;;;;;;;577.43;146.63;;;;;;;;;;5034439;28;20398;-74
2021/07/13 08:28:17;;;;;;;574.93;149.17;;;;;;;;;;5034194;28;20458;-74
2021/07/13 08:30:43;;;;;;;575.13;152.57;;;;;;;;;;5034092;28;20771;-74
2021/07/13 08:33:09;;;;;;;577.60;150.13;;;;;;;;;;5032553;28;20453;-74
2021/07/13 08:35:35;;;;;;;587.40;155.93;;;;;;;;;;5034238;28;20405;-74
2021/07/13 08:38:01;;;;;;;577.47;146.40;;;;;;;;;;5034650;28;20464;-74
2021/07/13 08:40:28;;;;;;;572.40;145.93;;;24.60;99.90;;;;;;5034112;28;20904;-74
2021/07/13 08:42:55;;;;;;;572.53;147.17;;;;;;;;;;5034075;28;20493;-74
2021/07/13 08:45:21;;;;;;;582.87;152.97;;;;;;;;;;5033584;28;20419;-74
2021/07/13 08:47:49;;;;;;;572.00;149.30;;;24.50;99.90;;;;;;5049349;28;20418;-74
2021/07/13 08:50:16;;;;;;;582.97;151.03;;;;;;;;;;5033721;28;20913;-74
2021/07/13 08:52:42;;;;;;;623.23;173.30;;;;;;;;;;5034016;28;20460;-74
2021/07/13 08:55:09;;;;;;;583.23;150.33;;;;;;;;;;5033696;28;20780;-74
2021/07/13 08:57:37;;;;;;;577.20;149.13;;;24.50;99.90;;;;;;5033313;28;20418;-74
2021/07/13 09:00:05;;;;;;;578.03;150.47;;;;;;;;;;5033568;28;20763;-74
2021/07/13 09:02:31;;;;;;;572.00;146.33;;;;;;;;;;5032239;28;20771;-74
2021/07/13 09:04:57;;;;;;;576.70;148.87;;;;;;;;;;5033350;28;20398;-75
2021/07/13 09:07:23;;;;;;;580.67;151.77;;;;;;;;;;5032263;28;20701;-74
2021/07/13 09:09:52;;;;;;;570.13;151.57;;;;;;;;;;5030859;28;20480;-74
2021/07/13 09:12:21;;;;;;;567.63;145.60;;;24.10;99.90;;;;;;5033079;28;20378;-74
2021/07/13 09:15:00;;;;;;;571.40;147.53;;;;;;;;;;5032876;28;20426;-74
2021/07/13 09:17:44;;;;;;;578.07;154.00;;;23.80;99.90;;;;;;5033254;28;20824;-74
2021/07/13 09:20:12;;;;;;;580.97;151.37;;;;;;;;;;5033346;28;20401;-74
2021/07/13 09:22:44;;;;;;;585.67;152.27;;;23.60;99.90;;;;;;5031703;28;20934;-76
2021/07/13 09:25:25;;;;;;;581.23;152.20;;;;;;;;;;5032548;28;20774;-76
2021/07/13 09:28:10;;;;;;;571.27;144.67;;;;;;;;;;5033219;28;20772;-76
2021/07/13 09:30:38;;;;;;;569.47;143.20;;;23.50;99.90;;;;;;5032785;28;20428;-77
2021/07/13 09:33:20;;;;;;;569.30;144.57;;;23.40;99.90;;;;;;5032213;28;20440;-76
2021/07/13 09:35:59;;;;;;;568.60;140.87;;;23.40;99.90;;;;;;5032847;28;20415;-76
2021/07/13 09:38:26;;;;;;;571.17;141.20;;;;;;;;;;5032720;28;20514;-76
2021/07/13 09:41:04;;;;;;;569.70;141.13;;;23.30;99.90;;;;;;5042511;28;20493;-76
2021/07/13 09:43:42;;;;;;;574.57;145.90;;;;;;;;;;5032188;28;20454;-77
2021/07/13 09:46:25;;;;;;;574.27;145.30;;;;;;;;;;5032806;28;20498;-76
2021/07/13 09:49:09;;;;;;;591.17;151.90;;;;;;;;;;5033181;28;20396;-76
2021/07/13 09:51:36;;;;;;;577.20;141.93;;;;;;;;;;5012674;28;20393;-76
2021/07/13 09:54:02;;;;;;;575.13;141.27;;;23.10;99.90;;;;;;5029936;28;20437;-76
2021/07/13 09:56:42;;;;;;;572.87;141.87;;;23.00;99.90;;;;;;5032611;28;20423;-77
2021/07/13 09:59:08;;;;;;;571.27;138.90;;;;;;;;;;5032843;28;20396;-76
2021/07/13 10:01:34;;;;;;;575.77;143.67;;;;;;;;;;5047115;28;20404;-76
2021/07/13 10:04:03;;;;;;;574.10;140.17;;;;;;;;;;5032603;28;20545;-77
2021/07/13 10:06:30;;;;;;;572.67;139.80;;;;;;;;;;5032106;28;20397;-76
2021/07/13 10:08:59;;;;;;;599.43;155.27;;;23.00;99.90;;;;;;5030170;28;20787;-76
2021/07/13 10:11:26;;;;;;;585.60;145.37;;;;;;;;;;5031868;28;20443;-76
2021/07/13 10:13:52;;;;;;;591.70;150.10;;;23.00;99.90;;;;;;5032283;28;20411;-77
2021/07/13 10:16:18;;;;;;;585.73;146.23;;;;;;;;;;5032119;28;20404;-76
2021/07/13 10:18:45;;;;;;;577.77;146.27;;;;;;;;;;5047759;28;20749;-76
2021/07/13 10:21:12;;;;;;;590.53;148.10;;;23.20;99.90;;;;;;5032214;28;20490;-76
2021/07/13 10:23:38;;;;;;;593.93;148.20;;;;;;;;;;5032012;28;21048;-76
2021/07/13 10:26:06;;;;;;;592.80;146.87;;;;;;;;;;5030960;28;20452;-76
2021/07/13 10:28:33;;;;;;;582.37;143.97;;;;;;;;;;5032130;28;20374;-76
2021/07/13 10:30:59;;;;;;;573.47;141.17;;;;;;;;;;5030344;28;20412;-76
2021/07/13 10:33:36;;;;;;;589.73;149.97;;;23.20;99.90;;;;;;5031946;28;20926;-76
2021/07/13 10:36:21;;;;;;;589.20;150.87;;;;;;;;;;5032182;28;20403;-76
2021/07/13 10:38:47;;;;;;;584.37;148.57;;;;;;;;;;5020699;28;20418;-76
2021/07/13 10:41:13;;;;;;;574.27;143.53;;;;;;;;;;5031918;28;20478;-76
2021/07/13 10:43:47;;;;;;;569.17;140.07;;;;;;;;;;5031281;28;20543;-76
2021/07/13 10:46:13;;;;;;;596.13;146.20;;;;;;;;;;5029389;28;20913;-76
2021/07/13 10:48:39;;;;;;;573.80;140.23;;;;;;;;;;5032228;28;20398;-76
2021/07/13 10:51:07;;;;;;;580.73;147.63;;;;;;;;;;5030269;28;20514;-76
2021/07/13 10:53:35;;;;;;;571.83;141.50;;;23.10;99.90;;;;;;5032046;28;20862;-76
2021/07/13 10:56:10;;;;;;;571.43;140.90;;;23.10;99.90;;;;;;5032277;28;20400;-76
2021/07/13 10:58:36;;;;;;;573.27;140.90;;;;;;;;;;5031945;28;20398;-76
2021/07/13 11:01:05;;;;;;;579.27;144.20;;;;;;;;;;5031398;28;20396;-76
2021/07/13 11:03:31;;;;;;;576.03;144.97;;;;;;;;;;5022259;28;20455;-76
2021/07/13 11:05:57;;;;;;;654.67;171.80;;;;;;;;;;5011839;28;20405;-76
2021/07/13 11:08:44;;;;;;;562.97;138.00;;;;;;;;;;5029801;28;20421;-76
2021/07/13 11:11:10;;;;;;;565.63;142.33;;;;;;;;;;5027236;28;20426;-76
2021/07/13 11:13:36;;;;;;;570.83;140.77;;;;;;;;;;5039370;28;20477;-76
2021/07/13 11:16:03;;;;;;;572.20;144.43;;;23.20;99.90;;;;;;5031304;28;20398;-76
2021/07/13 11:18:30;;;;;;;567.53;144.50;;;;;;;;;;5031687;28;20415;-76
2021/07/13 11:20:56;;;;;;;575.77;148.07;;;;;;;;;;5031345;28;20931;-76
2021/07/13 11:23:28;;;;;;;567.97;139.93;;;23.60;99.90;;;;;;5031351;28;20478;-76
2021/07/13 11:26:07;;;;;;;564.27;143.13;;;;;;;;;;5031921;28;20402;-76
2021/07/13 11:28:33;;;;;;;552.27;141.53;;;;;;;;;;5031855;28;20397;-76
2021/07/13 11:30:59;;;;;;;557.50;143.20;;;;;;;;;;5031381;28;20418;-76
2021/07/13 11:33:26;;;;;;;559.60;146.97;;;;;;;;;;5029771;28;20475;-76
2021/07/13 11:35:53;;;;;;;567.07;150.53;;;;;;;;;;5031054;28;20396;-76
2021/07/13 11:38:26;;;;;;;559.53;144.40;;;25.10;99.90;;;;;;5031803;28;20860;-76
2021/07/13 11:41:11;;;;;;;560.10;145.00;;;25.60;99.90;;;;;;5031454;28;20414;-77
2021/07/13 11:43:38;;;;;;;593.17;157.20;;;26.10;99.90;;;;;;5031260;28;20445;-77
2021/07/13 11:46:10;;;;;;;567.80;151.10;;;;;;;;;;5031592;28;20438;-77
2021/07/13 11:48:37;;;;;;;570.70;155.67;;;26.70;99.90;;;;;;5031283;28;20434;-77
2021/07/13 11:51:03;;;;;;;571.50;155.17;;;;;;;;;;5031360;28;20966;-77
2021/07/13 11:53:31;;;;;;;591.93;167.67;;;;;;;;;;5031090;28;20398;-77
2021/07/13 11:56:04;;;;;;;575.20;157.73;;;;;;;;;;5032485;28;20396;-76
2021/07/13 11:58:32;;;;;;;585.20;169.13;;;;;;;;;;5031616;28;20426;-76
2021/07/13 12:01:16;;;;;;;576.10;165.47;;;;;;;;;;5030187;28;20858;-76
2021/07/13 12:03:42;;;;;;;572.63;158.80;;;;;;;;;;5029511;28;20450;-76
2021/07/13 12:06:12;;;;;;;581.70;164.10;;;;;;;;;;5033019;28;20431;-76
2021/07/13 12:08:38;;;;;;;579.50;166.57;;;27.90;99.90;;;;;;5038862;28;20394;-76
2021/07/13 12:11:05;;;;;;;589.90;166.83;;;;;;;;;;5040127;28;20424;-76
2021/07/13 12:13:31;;;;;;;574.67;165.17;;;;;;;;;;5033460;28;20404;-76
2021/07/13 12:16:16;;;;;;;601.27;174.23;;;;;;;;;;5034099;28;20489;-76
2021/07/13 12:18:43;;;;;;;572.70;165.60;;;;;;;;;;5034517;28;20376;-76
2021/07/13 12:21:13;;;;;;;579.03;163.53;;;;;;;;;;5041428;28;20377;-76
2021/07/13 12:23:40;;;;;;;577.97;170.30;;;28.80;99.90;;;;;;5054693;28;20835;-76
2021/07/13 12:26:25;;;;;;;594.23;182.40;;;;;;;;;;5054114;28;20406;-76
2021/07/13 12:29:05;;;;;;;583.00;175.53;;;;;;;;;;5040176;28;20465;-76
2021/07/13 12:31:32;;;;;;;586.07;172.93;;;29.40;99.90;;;;;;5033959;28;21196;-76
2021/07/13 12:33:58;;;;;;;584.13;181.50;;;;;;;;;;5026062;28;20842;-76
2021/07/13 12:36:28;;;;;;;593.93;183.63;;;;;;;;;;5018255;28;20434;-76
2021/07/13 12:38:55;;;;;;;588.27;179.80;;;;;;;;;;5033988;28;20463;-76
2021/07/13 12:41:22;;;;;;;587.87;182.13;;;;;;;;;;5034154;28;20878;-76
2021/07/13 12:43:48;;;;;;;594.43;178.37;;;29.20;99.90;;;;;;5033022;28;20454;-76
2021/07/13 12:46:32;;;;;;;595.93;181.27;;;;;;;;;;5033541;28;20411;-76
2021/07/13 12:49:09;;;;;;;581.70;168.70;;;28.70;99.90;;;;;;5032232;28;20527;-76
2021/07/13 12:51:35;;;;;;;598.03;183.67;;;;;;;;;;5027120;28;20778;-76
2021/07/13 12:54:08;;;;;;;599.03;184.47;;;28.60;99.90;;;;;;5031585;28;20434;-76
2021/07/13 12:56:35;;;;;;;596.93;181.07;;;28.50;99.90;;;;;;5031327;28;20483;-76
2021/07/13 12:59:10;;;;;;;600.40;187.57;;;;;;;;;;5029570;28;20441;-76
2021/07/13 13:01:36;;;;;;;591.97;176.30;;;28.50;99.90;;;;;;5034325;28;20480;-76
2021/07/13 13:04:29;;;;;;;597.37;180.50;;;28.50;99.90;;;;;;5026207;28;20468;-77
2021/07/13 13:06:55;;;;;;;601.70;181.40;;;;;;;;;;4972511;28;20444;-76
2021/07/13 13:09:21;;;;;;;587.00;172.17;;;;;;;;;;4972735;28;20794;-75
2021/07/13 13:11:47;;;;;;;605.50;178.83;;;;;;;;;;4980041;28;20442;-76
2021/07/13 13:14:15;;;;;;;600.17;183.77;;;;;;;;;;4978736;28;20542;-79
2021/07/13 13:16:41;;;;;;;593.03;171.67;;;;;;;;;;4973764;28;20789;-79
2021/07/13 13:19:08;;;;;;;605.80;174.10;;;;;;;;;;4975994;28;20405;-75
2021/07/13 13:21:37;;;;;;;600.37;165.33;;;;;;;;;;4992413;28;20408;-76
2021/07/13 13:24:05;;;;;;;604.40;159.00;;;24.80;99.90;;;;;;4986488;28;20557;-76
2021/07/13 13:26:32;;;;;;;585.90;151.33;;;24.30;99.90;;;;;;4973720;28;20412;-79
2021/07/13 13:29:04;;;;;;;598.47;147.83;;;;;;;;;;4969754;28;20420;-75
2021/07/13 13:31:30;;;;;;;604.33;150.57;;;;;;;;;;4952665;29;20933;-75
2021/07/13 13:33:58;;;;;;;585.13;147.53;;;;;;;;;;4971243;28;20914;-79
2021/07/13 13:41:23;;;;;;;603.90;140.40;;;;;;;;;;4973064;28;20853;-76